Time;durP1;ratioP1;P1;durP2;ratioP2;P2;SDS_P1;SDS_P2;PMS_P1;PMS_P2;Temp;Humidity;BMP_temperature;BMP_pressure;BME280_temperature;BME280_humidity;BME280_pressure;Samples;Min_cycle;Max_cycle;Signal;HPM_P1;HPM_P2
2023/08/16 00:00:14;;;;;;;4.15;3.67;;;;;17.90;94493.00;;;;7395344;19;20650;-79
2023/08/16 00:02:49;;;;;;;6.57;3.80;;;;;18.00;94498.00;;;;7398271;19;20121;-80
2023/08/16 00:05:23;;;;;;;8.38;4.03;;;;;18.10;94496.00;;;;7396600;19;20162;-80
2023/08/16 00:07:58;;;;;;;6.53;4.72;;;;;18.10;94494.00;;;;7395136;19;20222;-80
2023/08/16 00:10:33;;;;;;;5.97;4.55;;;;;18.10;94483.00;;;;7396439;19;20141;-79
2023/08/16 00:13:01;;;;;;;5.20;4.70;;;;;18.10;94484.00;;;;7397229;19;20599;-78
2023/08/16 00:15:35;;;;;;;7.22;4.63;;;;;18.00;94489.00;;;;7395031;19;20153;-78
2023/08/16 00:18:03;;;;;;;5.25;4.45;;;;;17.90;94493.00;;;;7396892;19;20155;-78
2023/08/16 00:20:37;;;;;;;6.00;4.82;;;;;17.80;94493.00;;;;7396511;19;20147;-79
2023/08/16 00:23:11;;;;;;;4.93;4.43;;;;;17.90;94488.00;;;;7392306;19;20141;-78
2023/08/16 00:25:45;;;;;;;6.15;5.35;;;;;17.80;94492.00;;;;7397933;19;20558;-80
2023/08/16 00:28:13;;;;;;;7.20;5.22;;;;;17.90;94486.00;;;;7396456;19;20125;-79
2023/08/16 00:30:53;;;;;;;9.02;5.82;;;;;17.90;94492.00;;;;7395101;19;20557;-80
2023/08/16 00:33:27;;;;;;;5.50;5.00;;;;;17.90;94482.00;;;;7399160;19;20564;-78
2023/08/16 00:35:55;;;;;;;6.22;5.63;;;;;18.00;94476.00;;;;7397748;19;20539;-81
2023/08/16 00:38:29;;;;;;;6.72;5.65;;;;;18.00;94473.00;;;;7395967;19;20128;-80
2023/08/16 00:40:57;;;;;;;10.23;5.55;;;;;17.90;94471.00;;;;7395786;19;20148;-80
2023/08/16 00:43:32;;;;;;;8.10;5.80;;;;;17.80;94464.00;;;;7396057;19;20618;-80
2023/08/16 00:46:00;;;;;;;6.38;5.63;;;;;17.70;94461.00;;;;7393800;19;20148;-78
2023/08/16 00:48:31;;;;;;;8.18;5.65;;;;;17.70;94463.00;;;;7395654;19;20157;-77
2023/08/16 00:51:13;;;;;;;6.45;5.22;;;;;17.60;94458.00;;;;7395551;19;20156;-80
2023/08/16 00:53:47;;;;;;;7.47;4.95;;;;;17.60;94452.00;;;;7394320;19;20159;-77
2023/08/16 00:56:16;;;;;;;6.18;4.90;;;;;17.70;94450.00;;;;7396217;19;20133;-79
2023/08/16 00:58:51;;;;;;;6.50;5.18;;;;;17.70;94452.00;;;;7396180;19;20248;-78
2023/08/16 01:04:13;;;;;;;7.57;4.93;;;;;17.60;94453.00;;;;7389000;19;20568;-79
2023/08/16 01:06:53;;;;;;;6.07;5.10;;;;;17.50;94448.00;;;;7398047;19;20509;-78
2023/08/16 01:09:27;;;;;;;5.43;4.70;;;;;17.50;94438.00;;;;7395187;19;20149;-78
2023/08/16 01:12:23;;;;;;;4.88;4.38;;;;;17.60;94442.00;;;;7395216;19;20587;-79
2023/08/16 01:15:00;;;;;;;6.38;4.10;;;;;17.50;94444.00;;;;7393676;19;20772;-79
2023/08/16 01:17:36;;;;;;;5.95;4.03;;;;;17.50;94434.00;;;;7396127;19;20607;-79
2023/08/16 01:20:07;;;;;;;4.55;4.03;;;;;17.60;94435.00;;;;7395721;19;20149;-80
2023/08/16 01:22:44;;;;;;;4.38;3.58;;;;;17.40;94435.00;;;;7396453;19;20136;-78
2023/08/16 01:25:35;;;;;;;4.50;4.03;;;;;17.30;94433.00;;;;7395842;19;20145;-78
2023/08/16 01:28:10;;;;;;;7.32;3.70;;;;;17.20;94439.00;;;;7396263;19;20575;-79
2023/08/16 01:30:40;;;;;;;4.32;3.80;;;;;17.20;94438.00;;;;7394287;19;20178;-79
2023/08/16 01:33:15;;;;;;;4.75;3.67;;;;;17.20;94436.00;;;;7391322;19;20507;-79
2023/08/16 01:35:49;;;;;;;4.32;3.60;;;;;17.20;94440.00;;;;7395316;19;20140;-78
2023/08/16 01:38:24;;;;;;;4.30;3.72;;;;;17.20;94438.00;;;;7393355;19;20145;-78
2023/08/16 01:41:31;;;;;;;3.78;3.20;;;;;17.20;94439.00;;;;7390276;19;20607;-79
2023/08/16 01:43:59;;;;;;;5.07;3.55;;;;;17.10;94438.00;;;;7393526;19;20473;-80
2023/08/16 01:46:35;;;;;;;5.97;3.85;;;;;17.10;94435.00;;;;7396174;19;20152;-78
2023/08/16 01:49:03;;;;;;;4.10;3.70;;;;;17.20;94433.00;;;;7394312;19;20132;-78
2023/08/16 01:51:39;;;;;;;6.95;3.95;;;;;17.30;94438.00;;;;7393402;19;20523;-78
2023/08/16 01:54:07;;;;;;;5.05;4.55;;;;;17.30;94425.00;;;;7396285;19;20133;-79
2023/08/16 01:56:41;;;;;;;7.90;4.38;;;;;17.20;94425.00;;;;7403487;19;20120;-78
2023/08/16 01:59:08;;;;;;;6.57;4.45;;;;;17.20;94428.00;;;;7400186;19;20220;-78
2023/08/16 02:01:36;;;;;;;6.00;4.97;;;;;17.20;94425.00;;;;7402514;19;20610;-79
2023/08/16 02:04:18;;;;;;;5.30;4.80;;;;;17.10;94424.00;;;;7399668;19;20137;-78
2023/08/16 02:06:46;;;;;;;8.20;4.57;;;;;17.00;94433.00;;;;7401715;19;20155;-78
2023/08/16 02:09:21;;;;;;;10.55;4.88;;;;;17.00;94433.00;;;;7402406;19;20200;-79
2023/08/16 02:11:55;;;;;;;6.00;4.35;;;;;16.80;94424.00;;;;7400075;19;20149;-77
2023/08/16 02:14:23;;;;;;;6.03;4.25;;;;;16.80;94434.00;;;;7400003;19;20642;-78
2023/08/16 02:16:57;;;;;;;8.13;4.43;;;;;16.80;94425.00;;;;7402235;19;20591;-78
2023/08/16 02:19:31;;;;;;;6.55;5.20;;;;;16.90;94427.00;;;;7401055;19;20149;-78
2023/08/16 02:22:05;;;;;;;5.72;5.13;;;;;17.10;94424.00;;;;7397596;19;20144;-78
2023/08/16 02:24:34;;;;;;;9.52;5.55;;;;;17.10;94419.00;;;;7401486;19;20149;-78
2023/08/16 02:27:09;;;;;;;7.68;5.32;;;;;17.10;94409.00;;;;7400693;19;20175;-78
2023/08/16 02:29:43;;;;;;;6.72;4.97;;;;;16.90;94409.00;;;;7401151;19;20139;-78
2023/08/16 02:32:17;;;;;;;6.00;4.82;;;;;16.90;94406.00;;;;7399536;19;20197;-78
2023/08/16 02:34:52;;;;;;;7.85;5.10;;;;;16.80;94412.00;;;;7401762;19;20487;-78
2023/08/16 02:37:20;;;;;;;6.97;5.72;;;;;16.90;94399.00;;;;7399902;19;20141;-78
2023/08/16 02:39:54;;;;;;;8.48;5.50;;;;;16.90;94403.00;;;;7400979;19;20151;-78
2023/08/16 02:42:28;;;;;;;8.13;6.18;;;;;17.00;94405.00;;;;7400656;19;20200;-78
2023/08/16 02:45:02;;;;;;;9.43;6.55;;;;;17.10;94401.00;;;;7398343;19;20609;-77
2023/08/16 02:47:36;;;;;;;7.63;6.25;;;;;17.10;94397.00;;;;7400469;19;20156;-78
2023/08/16 02:50:10;;;;;;;8.43;6.53;;;;;17.20;94402.00;;;;7400168;19;20611;-77
2023/08/16 02:52:38;;;;;;;10.75;6.75;;;;;17.10;94416.00;;;;7397581;19;20502;-78
2023/08/16 02:55:12;;;;;;;8.40;6.57;;;;;17.10;94413.00;;;;7399626;19;20148;-77
2023/08/16 02:57:46;;;;;;;11.55;7.13;;;;;17.20;94411.00;;;;7400152;19;20266;-77
2023/08/16 03:00:20;;;;;;;13.07;7.95;;;;;17.20;94420.00;;;;7399012;19;20159;-78
2023/08/16 03:02:54;;;;;;;13.32;7.28;;;;;17.10;94416.00;;;;7397077;19;20212;-78
2023/08/16 03:05:29;;;;;;;10.75;7.07;;;;;17.20;94434.00;;;;7399662;19;20149;-78
2023/08/16 03:07:57;;;;;;;10.50;6.78;;;;;17.30;94429.00;;;;7400525;19;20599;-78
2023/08/16 03:10:31;;;;;;;8.93;7.07;;;;;17.30;94447.00;;;;7399641;19;20599;-78
2023/08/16 03:13:00;;;;;;;10.43;7.03;;;;;17.40;94466.00;;;;7396834;19;20591;-78
2023/08/16 03:15:35;;;;;;;12.23;9.02;;;;;17.60;94498.00;;;;7399034;19;20160;-77
2023/08/16 03:18:03;;;;;;;13.30;8.60;;;;;17.60;94509.00;;;;7400384;19;20571;-79
2023/08/16 03:20:40;;;;;;;11.15;7.70;;;;;17.70;94504.00;;;;7399944;19;20149;-78
2023/08/16 03:23:07;;;;;;;8.30;7.05;;;;;17.70;94507.00;;;;7395897;19;20148;-77
2023/08/16 03:25:44;;;;;;;9.82;7.38;;;;;17.60;94490.00;;;;7397853;19;20140;-78
2023/08/16 03:28:12;;;;;;;11.20;7.60;;;;;17.60;94488.00;;;;7398363;19;20149;-77
2023/08/16 03:30:46;;;;;;;7.72;6.55;;;;;17.50;94494.00;;;;7398597;19;20501;-77
2023/08/16 03:33:15;;;;;;;8.57;6.97;;;;;17.50;94482.00;;;;7396207;19;20663;-78
2023/08/16 03:35:49;;;;;;;9.88;7.10;;;;;17.50;94484.00;;;;7399188;19;20618;-77
2023/08/16 03:38:18;;;;;;;8.55;7.30;;;;;17.60;94496.00;;;;7398361;19;20157;-76
2023/08/16 03:40:52;;;;;;;9.65;7.60;;;;;17.70;94490.00;;;;7396983;19;20630;-77
2023/08/16 03:43:31;;;;;;;12.93;7.03;;;;;17.70;94496.00;;;;7398908;19;20137;-78
2023/08/16 03:46:00;;;;;;;9.68;7.50;;;;;17.70;94492.00;;;;7397543;19;20145;-77
2023/08/16 03:48:34;;;;;;;8.45;6.82;;;;;17.70;94488.00;;;;7397030;19;20140;-78
2023/08/16 03:51:02;;;;;;;10.05;7.47;;;;;17.70;94489.00;;;;7398168;19;20162;-78
2023/08/16 03:53:37;;;;;;;9.00;6.80;;;;;17.60;94492.00;;;;7394669;19;20673;-77
2023/08/16 03:56:11;;;;;;;10.52;6.82;;;;;17.60;94487.00;;;;7399212;19;20152;-79
2023/08/16 03:58:55;;;;;;;10.13;6.97;;;;;17.50;94496.00;;;;7397706;19;20144;-79
2023/08/16 04:01:30;;;;;;;7.43;5.95;;;;;17.40;94487.00;;;;7395714;19;20709;-79
2023/08/16 04:04:06;;;;;;;7.00;6.28;;;;;17.50;94491.00;;;;7394198;19;20678;-78
2023/08/16 04:06:41;;;;;;;11.48;6.25;;;;;17.40;94494.00;;;;7398309;19;20264;-78
2023/08/16 04:09:09;;;;;;;7.30;6.03;;;;;17.40;94480.00;;;;7396599;19;20180;-78
2023/08/16 04:11:44;;;;;;;9.27;6.10;;;;;17.30;94479.00;;;;7397109;19;20163;-81
2023/08/16 04:14:12;;;;;;;8.38;6.22;;;;;17.30;94474.00;;;;7396598;19;20136;-78
2023/08/16 04:16:47;;;;;;;9.45;6.13;;;;;17.20;94471.00;;;;7395263;19;20145;-79
2023/08/16 04:19:22;;;;;;;6.85;6.13;;;;;17.10;94459.00;;;;7397977;19;20135;-78
2023/08/16 04:21:50;;;;;;;11.48;5.72;;;;;17.10;94458.00;;;;7394537;19;20136;-78
2023/08/16 04:24:24;;;;;;;8.02;5.90;;;;;17.10;94447.00;;;;7396540;19;20612;-78
2023/08/16 04:26:52;;;;;;;6.43;5.75;;;;;17.10;94436.00;;;;7396738;19;20148;-78
2023/08/16 04:29:27;;;;;;;8.32;6.15;;;;;17.00;94428.00;;;;7396022;19;20499;-78
2023/08/16 04:31:56;;;;;;;8.80;6.53;;;;;17.20;94436.00;;;;7396413;19;20168;-78
2023/08/16 04:34:30;;;;;;;6.60;5.95;;;;;17.10;94422.00;;;;7396889;19;20584;-78
2023/08/16 04:36:58;;;;;;;9.93;6.63;;;;;17.20;94419.00;;;;7397199;19;20125;-81
2023/08/16 04:39:32;;;;;;;8.45;6.70;;;;;17.30;94421.00;;;;7396248;19;20595;-81
2023/08/16 04:42:06;;;;;;;7.78;6.72;;;;;17.40;94410.00;;;;7397622;19;20611;-82
2023/08/16 04:44:42;;;;;;;7.88;6.70;;;;;17.50;94409.00;;;;7392846;19;20160;-81
2023/08/16 04:47:11;;;;;;;15.73;6.95;;;;;17.80;94395.00;;;;7396813;19;20473;-81
2023/08/16 04:49:46;;;;;;;7.53;6.75;;;;;18.00;94392.00;;;;7396413;19;20187;-81
2023/08/16 04:52:13;;;;;;;9.57;6.80;;;;;18.10;94396.00;;;;7395220;19;20156;-81
2023/08/16 04:54:48;;;;;;;7.82;7.03;;;;;18.40;94398.00;;;;7396201;19;20494;-81
2023/08/16 04:57:16;;;;;;;7.93;7.13;;;;;18.50;94406.00;;;;7394401;19;20148;-81
2023/08/16 04:59:53;;;;;;;10.57;6.88;;;;;18.50;94416.00;;;;7395405;19;20152;-81
2023/08/16 05:02:21;;;;;;;6.70;5.97;;;;;18.60;94415.00;;;;7395234;19;20185;-81
2023/08/16 05:05:03;;;;;;;7.15;5.65;;;;;18.70;94421.00;;;;7397948;19;20223;-81
2023/08/16 05:07:30;;;;;;;6.50;5.82;;;;;18.80;94432.00;;;;7395384;19;20120;-82
2023/08/16 05:10:05;;;;;;;7.20;5.50;;;;;18.90;94427.00;;;;7389454;19;20148;-83
2023/08/16 05:12:33;;;;;;;6.97;6.20;;;;;18.90;94426.00;;;;7370825;19;20140;-81
2023/08/16 05:15:10;;;;;;;8.65;5.75;;;;;19.10;94432.00;;;;7381761;19;20152;-81
2023/08/16 05:17:44;;;;;;;7.43;6.28;;;;;19.10;94438.00;;;;7385107;19;20121;-81
2023/08/16 05:20:18;;;;;;;7.43;5.60;;;;;19.10;94437.00;;;;7386579;19;20695;-81
2023/08/16 05:22:52;;;;;;;7.80;5.43;;;;;19.10;94445.00;;;;7383398;19;20595;-83
2023/08/16 05:25:26;;;;;;;8.40;5.80;;;;;19.10;94445.00;;;;7384812;19;20642;-82
2023/08/16 05:27:58;;;;;;;6.53;5.65;;;;;19.10;94445.00;;;;7385815;19;20246;-82
2023/08/16 05:30:32;;;;;;;6.97;5.13;;;;;19.00;94445.00;;;;7389269;19;20487;-82
2023/08/16 05:33:00;;;;;;;5.45;4.95;;;;;19.00;94447.00;;;;7391997;19;20170;-82
2023/08/16 05:35:41;;;;;;;6.57;5.20;;;;;19.00;94444.00;;;;7392895;19;20144;-82
2023/08/16 05:38:10;;;;;;;15.52;5.03;;;;;19.10;94452.00;;;;7391885;19;20145;-81
2023/08/16 05:40:45;;;;;;;5.00;4.60;;;;;19.10;94449.00;;;;7393348;19;20210;-83
2023/08/16 05:43:13;;;;;;;4.78;3.95;;;;;19.00;94459.00;;;;7389592;19;20615;-83
2023/08/16 05:45:47;;;;;;;4.63;4.22;;;;;19.00;94466.00;;;;7391814;19;20125;-82
2023/08/16 05:48:16;;;;;;;4.88;4.10;;;;;19.10;94472.00;;;;7390783;19;20145;-83
2023/08/16 05:50:51;;;;;;;5.18;4.25;;;;;19.00;94466.00;;;;7392172;19;20141;-82
2023/08/16 05:53:19;;;;;;;4.68;4.18;;;;;19.10;94462.00;;;;7389530;19;20125;-81
2023/08/16 05:55:54;;;;;;;6.15;4.95;;;;;19.10;94460.00;;;;7389447;19;20161;-80
2023/08/16 05:58:22;;;;;;;4.85;4.45;;;;;19.20;94472.00;;;;7391954;19;20140;-80
2023/08/16 06:00:56;;;;;;;6.57;4.38;;;;;19.30;94471.00;;;;7388603;19;20198;-80
2023/08/16 06:03:30;;;;;;;4.72;3.75;;;;;19.30;94475.00;;;;7389565;19;20184;-80
2023/08/16 06:06:06;;;;;;;5.28;4.18;;;;;19.40;94480.00;;;;7389023;19;20540;-80
2023/08/16 06:08:34;;;;;;;5.30;4.45;;;;;19.50;94481.00;;;;7390208;19;20591;-80
2023/08/16 06:11:09;;;;;;;8.48;4.10;;;;;19.60;94480.00;;;;7389116;19;20159;-80
2023/08/16 06:13:36;;;;;;;6.53;4.03;;;;;19.70;94474.00;;;;7389262;19;20160;-80
2023/08/16 06:16:11;;;;;;;4.93;4.00;;;;;20.00;94473.00;;;;7391702;19;20146;-80
2023/08/16 06:18:39;;;;;;;4.45;4.05;;;;;20.20;94471.00;;;;7390748;19;20599;-80
2023/08/16 06:21:13;;;;;;;4.70;3.90;;;;;20.30;94473.00;;;;7383972;19;20165;-81
2023/08/16 06:23:42;;;;;;;3.75;3.45;;;;;20.20;94468.00;;;;7391179;19;20137;-81
2023/08/16 06:26:16;;;;;;;5.78;3.67;;;;;20.10;94477.00;;;;7389389;19;20159;-82
2023/08/16 06:28:51;;;;;;;6.15;3.15;;;;;20.10;94477.00;;;;7389269;19;20247;-80
2023/08/16 06:31:19;;;;;;;3.97;3.58;;;;;20.10;94480.00;;;;7389858;19;20208;-80
2023/08/16 06:33:53;;;;;;;4.70;3.17;;;;;20.10;94475.00;;;;7388354;19;20155;-80
2023/08/16 06:36:29;;;;;;;3.88;3.50;;;;;20.10;94476.00;;;;7385359;19;20631;-81
2023/08/16 06:39:03;;;;;;;3.70;3.40;;;;;20.10;94483.00;;;;7388565;19;20602;-80
2023/08/16 06:41:38;;;;;;;5.75;3.85;;;;;20.10;94482.00;;;;7389399;19;20634;-82
2023/08/16 06:44:07;;;;;;;3.95;3.47;;;;;20.10;94482.00;;;;7388643;19;20132;-81
2023/08/16 06:46:43;;;;;;;4.03;3.60;;;;;20.30;94488.00;;;;7389503;19;20143;-80
2023/08/16 06:49:18;;;;;;;4.65;3.38;;;;;20.60;94477.00;;;;7389969;19;20150;-80
2023/08/16 06:51:48;;;;;;;4.15;3.75;;;;;20.80;94487.00;;;;7389166;19;20476;-80
2023/08/16 06:54:22;;;;;;;4.93;3.40;;;;;21.00;94481.00;;;;7388081;19;20151;-80
2023/08/16 06:56:57;;;;;;;4.22;3.50;;;;;21.10;94480.00;;;;7390919;19;20133;-78
2023/08/16 06:59:32;;;;;;;4.28;3.33;;;;;21.20;94474.00;;;;7391248;19;20226;-77
2023/08/16 07:02:11;;;;;;;4.32;3.42;;;;;21.20;94475.00;;;;7389674;19;20169;-79
2023/08/16 07:04:51;;;;;;;6.57;3.33;;;;;21.40;94472.00;;;;7389778;19;20611;-80
2023/08/16 07:07:19;;;;;;;5.05;3.17;;;;;21.60;94477.00;;;;7391581;19;20129;-78
2023/08/16 07:09:54;;;;;;;14.32;3.28;;;;;21.70;94466.00;;;;7389882;19;20161;-79
2023/08/16 07:12:23;;;;;;;3.90;3.00;;;;;21.80;94464.00;;;;7391715;19;20137;-77
2023/08/16 07:14:58;;;;;;;5.82;2.90;;;;;21.80;94465.00;;;;7389834;19;20570;-77
2023/08/16 07:17:32;;;;;;;4.25;2.90;;;;;22.10;94464.00;;;;7391362;19;20606;-77
2023/08/16 07:19:59;;;;;;;6.25;3.05;;;;;22.30;94462.00;;;;7389104;19;20499;-79
2023/08/16 07:22:38;;;;;;;5.90;3.17;;;;;22.30;94469.00;;;;7386607;19;20599;-77
2023/08/16 07:25:07;;;;;;;4.57;2.90;;;;;22.30;94468.00;;;;7387719;19;20156;-78
2023/08/16 07:27:41;;;;;;;4.97;2.90;;;;;22.50;94474.00;;;;7388559;19;20160;-78
2023/08/16 07:30:15;;;;;;;6.22;3.58;;;;;22.70;94469.00;;;;7390481;19;20141;-78
2023/08/16 07:32:43;;;;;;;5.95;2.95;;;;;22.70;94468.00;;;;7388237;19;20159;-79
2023/08/16 07:35:23;;;;;;;4.53;3.22;;;;;22.70;94464.00;;;;7387142;19;20151;-77
2023/08/16 07:37:51;;;;;;;3.65;3.28;;;;;22.80;94479.00;;;;7391783;19;20528;-77
2023/08/16 07:40:26;;;;;;;4.75;3.22;;;;;23.00;94462.00;;;;7390198;19;20165;-76
2023/08/16 07:42:54;;;;;;;4.88;3.20;;;;;23.00;94475.00;;;;7386475;19;20208;-77
2023/08/16 07:45:28;;;;;;;4.47;3.05;;;;;23.30;94467.00;;;;7387358;19;20145;-76
2023/08/16 07:48:07;;;;;;;3.58;3.15;;;;;23.30;94474.00;;;;7389525;19;20483;-78
2023/08/16 07:50:45;;;;;;;6.72;3.22;;;;;23.50;94479.00;;;;7387086;19;20584;-78
2023/08/16 07:53:13;;;;;;;3.95;3.13;;;;;23.70;94473.00;;;;7383521;19;20129;-77
2023/08/16 07:55:47;;;;;;;3.50;3.20;;;;;23.80;94473.00;;;;7388289;19;20138;-78
2023/08/16 07:58:21;;;;;;;5.88;3.25;;;;;23.80;94474.00;;;;7387913;19;20129;-75
2023/08/16 08:00:55;;;;;;;8.38;3.20;;;;;23.90;94489.00;;;;7387202;19;20204;-75
2023/08/16 08:03:38;;;;;;;4.18;3.60;;;;;24.20;94478.00;;;;7387766;19;20179;-77
2023/08/16 08:06:19;;;;;;;6.30;3.30;;;;;24.00;94475.00;;;;7387402;19;20125;-79
2023/08/16 08:08:55;;;;;;;4.00;3.35;;;;;24.10;94475.00;;;;7387997;19;20132;-80
2023/08/16 08:11:30;;;;;;;7.50;3.60;;;;;24.30;94480.00;;;;7387309;19;20591;-79
2023/08/16 08:14:05;;;;;;;4.93;3.53;;;;;24.50;94479.00;;;;7388426;19;20216;-84
2023/08/16 08:16:41;;;;;;;7.10;3.30;;;;;24.50;94477.00;;;;7387287;19;20595;-81
2023/08/16 08:19:19;;;;;;;4.82;3.60;;;;;24.60;94481.00;;;;7388425;19;20168;-79
2023/08/16 08:21:53;;;;;;;6.45;3.72;;;;;24.80;94481.00;;;;7385700;19;20212;-80
2023/08/16 08:24:28;;;;;;;4.68;3.40;;;;;25.00;94480.00;;;;7389166;19;20492;-81
2023/08/16 08:26:57;;;;;;;5.80;3.75;;;;;25.10;94480.00;;;;7386631;19;20153;-80
2023/08/16 08:29:32;;;;;;;6.68;3.50;;;;;25.20;94482.00;;;;7386308;19;20607;-80
2023/08/16 08:32:09;;;;;;;6.82;4.30;;;;;25.20;94483.00;;;;7387685;19;20134;-81
2023/08/16 08:34:41;;;;;;;10.05;3.92;;;;;25.40;94469.00;;;;7388801;19;20129;-80
2023/08/16 08:37:24;;;;;;;5.43;3.78;;;;;25.40;94465.00;;;;7386104;19;20619;-80
2023/08/16 08:39:57;;;;;;;5.53;4.10;;;;;25.40;94476.00;;;;7385187;19;20177;-80
2023/08/16 08:42:32;;;;;;;7.63;4.00;;;;;25.50;94471.00;;;;7387941;19;20229;-79
2023/08/16 08:45:07;;;;;;;5.40;3.75;;;;;25.90;94472.00;;;;7388457;19;20144;-81
2023/08/16 08:47:46;;;;;;;4.80;4.03;;;;;26.00;94468.00;;;;7386551;19;20140;-79
2023/08/16 08:50:14;;;;;;;4.82;3.45;;;;;26.20;94470.00;;;;7385332;19;20141;-80
2023/08/16 08:52:54;;;;;;;4.10;3.50;;;;;26.10;94460.00;;;;7386935;19;20220;-80
2023/08/16 08:55:28;;;;;;;5.05;3.75;;;;;26.30;94468.00;;;;7385226;19;20177;-79
2023/08/16 08:58:04;;;;;;;4.90;3.42;;;;;26.10;94465.00;;;;7385228;19;20172;-80
2023/08/16 09:00:37;;;;;;;4.18;3.70;;;;;26.40;94472.00;;;;7385703;19;20153;-80
2023/08/16 09:03:12;;;;;;;6.68;3.75;;;;;26.40;94470.00;;;;7386923;19;20179;-79
2023/08/16 09:05:59;;;;;;;8.15;3.72;;;;;26.50;94467.00;;;;7384160;19;20619;-82
2023/08/16 09:08:37;;;;;;;6.82;4.18;;;;;26.60;94476.00;;;;7385387;19;20634;-80
2023/08/16 09:11:14;;;;;;;5.13;4.03;;;;;26.50;94474.00;;;;7386555;19;20595;-80
2023/08/16 09:13:43;;;;;;;6.07;3.65;;;;;26.60;94469.00;;;;7386479;19;20205;-80
2023/08/16 09:16:17;;;;;;;6.43;4.00;;;;;26.70;94461.00;;;;7384881;19;20575;-81
2023/08/16 09:18:49;;;;;;;6.20;3.95;;;;;26.80;94460.00;;;;7386079;19;20156;-81
2023/08/16 09:21:24;;;;;;;4.50;3.50;;;;;27.00;94461.00;;;;7383611;19;20472;-82
2023/08/16 09:24:03;;;;;;;6.05;3.90;;;;;27.00;94464.00;;;;7387809;19;20129;-79
2023/08/16 09:26:31;;;;;;;5.22;4.00;;;;;27.10;94466.00;;;;7385118;19;20646;-78
2023/08/16 09:29:06;;;;;;;9.10;4.03;;;;;27.50;94464.00;;;;7387721;19;20602;-77
2023/08/16 09:31:43;;;;;;;7.88;3.83;;;;;27.60;94457.00;;;;7386916;19;20131;-79
2023/08/16 09:34:24;;;;;;;4.15;3.40;;;;;27.80;94459.00;;;;7385813;19;20215;-78
2023/08/16 09:37:03;;;;;;;8.52;4.18;;;;;28.00;94457.00;;;;7383316;19;20691;-79
2023/08/16 09:39:36;;;;;;;3.95;3.35;;;;;28.30;94456.00;;;;7384877;19;20179;-80
2023/08/16 09:42:11;;;;;;;6.43;4.00;;;;;28.10;94452.00;;;;7384703;19;20140;-79
2023/08/16 09:44:48;;;;;;;6.07;3.75;;;;;28.20;94452.00;;;;7386220;19;20141;-80
2023/08/16 09:47:23;;;;;;;7.00;3.78;;;;;28.40;94470.00;;;;7384516;19;20622;-79
2023/08/16 09:50:03;;;;;;;6.63;3.67;;;;;28.70;94453.00;;;;7385444;19;20170;-80
2023/08/16 09:52:38;;;;;;;9.48;5.05;;;;;29.00;94464.00;;;;7385143;19;20133;-80
2023/08/16 09:55:09;;;;;;;4.55;4.05;;;;;29.20;94451.00;;;;7385484;19;20647;-78
2023/08/16 09:57:43;;;;;;;8.55;3.78;;;;;29.40;94458.00;;;;7385154;19;20128;-79
2023/08/16 10:00:17;;;;;;;4.93;3.88;;;;;29.10;94461.00;;;;7385018;19;20136;-79
2023/08/16 10:02:47;;;;;;;4.53;3.65;;;;;29.40;94453.00;;;;7381058;19;20164;-77
2023/08/16 10:05:29;;;;;;;7.38;3.90;;;;;29.50;94464.00;;;;7372508;19;20160;-78
2023/08/16 10:08:14;;;;;;;4.95;3.80;;;;;29.80;94454.00;;;;7376715;19;20156;-79
2023/08/16 10:10:47;;;;;;;4.00;3.67;;;;;29.40;94466.00;;;;7376449;19;20196;-78
2023/08/16 10:13:16;;;;;;;6.55;3.63;;;;;29.20;94462.00;;;;7376349;19;20152;-78
2023/08/16 10:15:47;;;;;;;5.75;4.00;;;;;29.20;94450.00;;;;7378502;19;20253;-77
2023/08/16 10:18:23;;;;;;;6.15;4.07;;;;;29.10;94452.00;;;;7384625;19;20136;-77
2023/08/16 10:20:59;;;;;;;6.40;4.10;;;;;29.20;94459.00;;;;7384004;19;20136;-78
2023/08/16 10:23:38;;;;;;;6.40;3.67;;;;;29.40;94444.00;;;;7383858;19;20136;-77
2023/08/16 10:26:14;;;;;;;4.53;3.42;;;;;29.10;94453.00;;;;7384150;19;20147;-78
2023/08/16 10:29:00;;;;;;;6.70;3.70;;;;;29.10;94444.00;;;;7382354;19;20128;-77
2023/08/16 10:31:51;;;;;;;4.78;3.67;;;;;29.60;94442.00;;;;7383562;19;20148;-78
2023/08/16 10:34:25;;;;;;;7.55;4.20;;;;;29.90;94439.00;;;;7382495;19;20152;-78
2023/08/16 10:37:00;;;;;;;6.05;4.10;;;;;29.60;94438.00;;;;7382327;19;20490;-78
2023/08/16 10:39:30;;;;;;;6.10;3.75;;;;;29.90;94438.00;;;;7383803;19;20223;-78
2023/08/16 10:42:05;;;;;;;10.02;4.32;;;;;29.80;94429.00;;;;7382575;19;20140;-78
2023/08/16 10:44:53;;;;;;;7.75;3.95;;;;;29.80;94435.00;;;;7384449;19;20132;-80
2023/08/16 10:47:30;;;;;;;4.10;3.67;;;;;29.80;94429.00;;;;7384257;19;20164;-79
2023/08/16 10:50:09;;;;;;;11.57;4.05;;;;;30.10;94421.00;;;;7382055;19;20148;-79
2023/08/16 10:52:44;;;;;;;9.32;4.22;;;;;30.30;94422.00;;;;7381597;19;20670;-78
2023/08/16 10:55:11;;;;;;;7.15;4.15;;;;;30.40;94424.00;;;;7382726;19;20137;-78
2023/08/16 10:57:54;;;;;;;6.57;3.78;;;;;30.50;94412.00;;;;7381913;19;20135;-79
2023/08/16 11:00:32;;;;;;;7.13;4.32;;;;;30.40;94421.00;;;;7381682;19;20135;-78
2023/08/16 11:03:24;;;;;;;6.25;3.92;;;;;30.90;94412.00;;;;7380235;19;20148;-79
2023/08/16 11:06:08;;;;;;;8.23;4.00;;;;;31.00;94415.00;;;;7383355;19;20601;-79
2023/08/16 11:08:44;;;;;;;5.57;4.13;;;;;30.80;94422.00;;;;7382362;19;20167;-79
2023/08/16 11:11:19;;;;;;;6.65;4.30;;;;;30.90;94415.00;;;;7382717;19;23787;-78
2023/08/16 11:14:00;;;;;;;7.28;4.35;;;;;30.90;94422.00;;;;7383568;19;20478;-79
2023/08/16 11:16:33;;;;;;;5.82;4.32;;;;;31.00;94419.00;;;;7381760;19;20198;-78
2023/08/16 11:19:04;;;;;;;7.78;4.03;;;;;30.60;94408.00;;;;7381501;19;20136;-79
2023/08/16 11:21:46;;;;;;;6.15;4.00;;;;;30.70;94417.00;;;;7380338;19;20488;-78
2023/08/16 11:24:24;;;;;;;7.45;4.43;;;;;31.00;94415.00;;;;7383427;19;20139;-78
2023/08/16 11:26:59;;;;;;;7.53;3.97;;;;;30.40;94424.00;;;;7381293;19;20515;-78
2023/08/16 11:29:27;;;;;;;5.65;4.53;;;;;31.00;94433.00;;;;7379526;19;20172;-79
2023/08/16 11:31:58;;;;;;;7.30;4.28;;;;;30.10;94433.00;;;;7383140;19;20135;-78
2023/08/16 11:34:32;;;;;;;9.70;4.72;;;;;29.60;94428.00;;;;7380755;19;20154;-78
2023/08/16 11:37:00;;;;;;;5.43;4.13;;;;;29.30;94407.00;;;;7379635;19;20832;-78
2023/08/16 11:39:36;;;;;;;8.02;4.60;;;;;30.60;94406.00;;;;7380809;19;20127;-77
2023/08/16 11:42:04;;;;;;;11.70;4.47;;;;;31.80;94403.00;;;;7382250;19;20599;-78
2023/08/16 11:44:39;;;;;;;6.70;4.60;;;;;31.10;94396.00;;;;7382765;19;20154;-81
2023/08/16 11:47:16;;;;;;;9.88;4.00;;;;;32.00;94395.00;;;;7381256;19;20131;-77
2023/08/16 11:49:48;;;;;;;7.18;4.63;;;;;32.70;94397.00;;;;7381705;19;20207;-78
2023/08/16 11:52:24;;;;;;;6.38;3.88;;;;;32.70;94396.00;;;;7381721;19;20151;-80
2023/08/16 11:55:07;;;;;;;11.77;4.43;;;;;32.60;94387.00;;;;7383998;19;20157;-81
2023/08/16 11:57:48;;;;;;;7.03;4.60;;;;;33.20;94387.00;;;;7387142;19;20132;-77
2023/08/16 12:00:30;;;;;;;6.88;4.32;;;;;33.30;94385.00;;;;7388046;19;20128;-78
2023/08/16 12:03:14;;;;;;;9.77;4.97;;;;;33.40;94370.00;;;;7386481;19;20179;-80
2023/08/16 12:05:49;;;;;;;5.00;4.10;;;;;34.00;94377.00;;;;7387865;19;20124;-78
2023/08/16 12:08:23;;;;;;;6.63;4.20;;;;;34.30;94377.00;;;;7386498;19;20484;-79
2023/08/16 12:10:54;;;;;;;7.40;3.80;;;;;34.40;94379.00;;;;7388941;19;20132;-79
2023/08/16 12:13:33;;;;;;;5.80;4.22;;;;;35.00;94378.00;;;;7389828;19;20136;-80
2023/08/16 12:16:09;;;;;;;5.72;4.28;;;;;34.80;94375.00;;;;7387474;19;20140;-78
2023/08/16 12:18:38;;;;;;;9.55;4.50;;;;;35.00;94369.00;;;;7386176;19;20132;-79
2023/08/16 12:21:12;;;;;;;5.35;4.38;;;;;35.30;94371.00;;;;7384845;19;20578;-78
2023/08/16 12:23:41;;;;;;;6.20;4.35;;;;;34.70;94388.00;;;;7385946;19;20144;-77
2023/08/16 12:26:16;;;;;;;8.32;4.88;;;;;34.60;94364.00;;;;7387312;19;20488;-78
2023/08/16 12:28:44;;;;;;;6.00;4.35;;;;;34.90;94370.00;;;;7387141;19;20159;-78
2023/08/16 12:31:20;;;;;;;7.68;4.60;;;;;34.70;94362.00;;;;7387227;19;20167;-78
2023/08/16 12:33:48;;;;;;;7.50;4.65;;;;;34.70;94363.00;;;;7387121;19;20140;-79
2023/08/16 12:36:22;;;;;;;5.00;4.43;;;;;34.30;94359.00;;;;7386606;19;20130;-78
2023/08/16 12:38:50;;;;;;;5.50;4.82;;;;;34.20;94365.00;;;;7385361;19;20163;-79
2023/08/16 12:41:24;;;;;;;4.70;4.15;;;;;34.60;94356.00;;;;7386003;19;20164;-79
2023/08/16 12:43:52;;;;;;;9.38;4.50;;;;;35.00;94357.00;;;;7384102;19;20140;-79
2023/08/16 12:46:26;;;;;;;8.68;5.15;;;;;35.60;94345.00;;;;7381569;19;20191;-78
2023/08/16 12:49:02;;;;;;;7.50;4.63;;;;;35.00;94345.00;;;;7383227;19;20192;-78
2023/08/16 12:51:30;;;;;;;6.78;4.50;;;;;35.30;94375.00;;;;7387513;19;20139;-79